Terminal Aerodrome Forecast
Issued by NWS

Home | Current Version | Previous Version | Text Only | Print | Product List | Glossary On
Versions: 1 2 3 4 5 6 7 8 9 10 11 12
000
FTUS46 KHNX 250520
TAFFAT
TAF
KFAT 250520Z 2506/2606 VRB04KT P6SM SKC
     FM251800 17010G15KT P6SM FEW250
     FM252200 28010KT P6SM SCT250=

USA.gov is the U.S. government's official web portal to all federal, state and local government web resources and services.